sensor_id;sensor_type;location;lat;lon;timestamp;temperature;humidity
20672;DHT22;10495;50.922;4.760;2023-11-21T00:01:17;10.90;96.40
20672;DHT22;10495;50.922;4.760;2023-11-21T00:03:42;10.90;96.40
20672;DHT22;10495;50.922;4.760;2023-11-21T00:06:09;10.90;96.40
20672;DHT22;10495;50.922;4.760;2023-11-21T00:08:34;10.90;96.50
20672;DHT22;10495;50.922;4.760;2023-11-21T00:11:00;11.00;96.40
20672;DHT22;10495;50.922;4.760;2023-11-21T00:13:26;11.00;96.40
20672;DHT22;10495;50.922;4.760;2023-11-21T00:15:52;11.00;96.40
20672;DHT22;10495;50.922;4.760;2023-11-21T00:18:18;11.00;96.50
20672;DHT22;10495;50.922;4.760;2023-11-21T00:20:44;11.00;96.30
20672;DHT22;10495;50.922;4.760;2023-11-21T00:23:10;11.00;96.30
20672;DHT22;10495;50.922;4.760;2023-11-21T00:25:36;10.90;96.30
20672;DHT22;10495;50.922;4.760;2023-11-21T00:28:01;10.90;96.30
20672;DHT22;10495;50.922;4.760;2023-11-21T00:30:27;10.90;96.40
20672;DHT22;10495;50.922;4.760;2023-11-21T00:32:54;10.90;96.40
20672;DHT22;10495;50.922;4.760;2023-11-21T00:35:20;10.90;96.40
20672;DHT22;10495;50.922;4.760;2023-11-21T00:37:47;10.90;96.40
20672;DHT22;10495;50.922;4.760;2023-11-21T00:40:15;11.00;96.50
20672;DHT22;10495;50.922;4.760;2023-11-21T00:42:41;10.90;96.60
20672;DHT22;10495;50.922;4.760;2023-11-21T00:45:07;10.90;96.40
20672;DHT22;10495;50.922;4.760;2023-11-21T00:47:33;10.90;96.40
20672;DHT22;10495;50.922;4.760;2023-11-21T00:49:58;10.90;96.40
20672;DHT22;10495;50.922;4.760;2023-11-21T00:52:24;11.00;96.30
20672;DHT22;10495;50.922;4.760;2023-11-21T00:54:50;11.00;96.20
20672;DHT22;10495;50.922;4.760;2023-11-21T00:57:16;10.90;96.30
20672;DHT22;10495;50.922;4.760;2023-11-21T00:59:41;10.90;96.30
20672;DHT22;10495;50.922;4.760;2023-11-21T01:02:07;10.90;96.30
20672;DHT22;10495;50.922;4.760;2023-11-21T01:04:35;10.90;96.30
20672;DHT22;10495;50.922;4.760;2023-11-21T01:07:01;10.80;96.30
20672;DHT22;10495;50.922;4.760;2023-11-21T01:09:26;10.80;96.20
20672;DHT22;10495;50.922;4.760;2023-11-21T01:11:53;10.70;96.20
20672;DHT22;10495;50.922;4.760;2023-11-21T01:14:19;10.70;96.10
20672;DHT22;10495;50.922;4.760;2023-11-21T01:16:44;10.70;96.10
20672;DHT22;10495;50.922;4.760;2023-11-21T01:19:10;10.50;96.00
20672;DHT22;10495;50.922;4.760;2023-11-21T01:21:35;10.50;95.90
20672;DHT22;10495;50.922;4.760;2023-11-21T01:24:01;10.40;95.90
20672;DHT22;10495;50.922;4.760;2023-11-21T01:26:28;10.40;95.80
20672;DHT22;10495;50.922;4.760;2023-11-21T01:28:53;10.30;95.80
20672;DHT22;10495;50.922;4.760;2023-11-21T01:31:20;10.30;95.80
20672;DHT22;10495;50.922;4.760;2023-11-21T01:33:46;10.20;95.80
20672;DHT22;10495;50.922;4.760;2023-11-21T01:36:11;10.20;95.80
20672;DHT22;10495;50.922;4.760;2023-11-21T01:38:37;10.30;95.80
20672;DHT22;10495;50.922;4.760;2023-11-21T01:41:03;10.20;95.80
20672;DHT22;10495;50.922;4.760;2023-11-21T01:43:29;10.20;95.80
20672;DHT22;10495;50.922;4.760;2023-11-21T01:45:57;10.20;95.80
20672;DHT22;10495;50.922;4.760;2023-11-21T01:48:23;10.20;95.80
20672;DHT22;10495;50.922;4.760;2023-11-21T01:50:49;10.20;95.90
20672;DHT22;10495;50.922;4.760;2023-11-21T01:53:16;10.20;95.80
20672;DHT22;10495;50.922;4.760;2023-11-21T01:55:42;10.20;95.90
20672;DHT22;10495;50.922;4.760;2023-11-21T01:58:09;10.20;95.90
20672;DHT22;10495;50.922;4.760;2023-11-21T02:00:35;10.20;95.90
20672;DHT22;10495;50.922;4.760;2023-11-21T02:03:02;10.20;95.90
20672;DHT22;10495;50.922;4.760;2023-11-21T02:05:27;10.20;96.10
20672;DHT22;10495;50.922;4.760;2023-11-21T02:07:54;10.30;96.00
20672;DHT22;10495;50.922;4.760;2023-11-21T02:10:22;10.30;96.00
20672;DHT22;10495;50.922;4.760;2023-11-21T02:12:50;10.20;95.90
20672;DHT22;10495;50.922;4.760;2023-11-21T02:15:16;10.20;95.90
20672;DHT22;10495;50.922;4.760;2023-11-21T02:17:46;10.20;95.90
20672;DHT22;10495;50.922;4.760;2023-11-21T02:20:17;10.20;96.10
20672;DHT22;10495;50.922;4.760;2023-11-21T02:22:53;10.10;95.80
20672;DHT22;10495;50.922;4.760;2023-11-21T02:27:51;10.10;95.80
20672;DHT22;10495;50.922;4.760;2023-11-21T02:30:17;10.10;95.80
20672;DHT22;10495;50.922;4.760;2023-11-21T02:32:42;10.00;95.80
20672;DHT22;10495;50.922;4.760;2023-11-21T02:35:08;10.10;95.80
20672;DHT22;10495;50.922;4.760;2023-11-21T02:37:34;10.00;96.00
20672;DHT22;10495;50.922;4.760;2023-11-21T02:40:01;10.00;96.00
20672;DHT22;10495;50.922;4.760;2023-11-21T02:42:29;10.00;95.80
20672;DHT22;10495;50.922;4.760;2023-11-21T02:44:55;10.10;95.90
20672;DHT22;10495;50.922;4.760;2023-11-21T02:47:22;10.00;95.90
20672;DHT22;10495;50.922;4.760;2023-11-21T02:49:48;10.00;95.90
20672;DHT22;10495;50.922;4.760;2023-11-21T02:52:14;10.00;95.90
20672;DHT22;10495;50.922;4.760;2023-11-21T02:54:39;10.00;95.90
20672;DHT22;10495;50.922;4.760;2023-11-21T02:57:05;10.00;95.90
20672;DHT22;10495;50.922;4.760;2023-11-21T02:59:31;10.10;95.90
20672;DHT22;10495;50.922;4.760;2023-11-21T03:01:57;10.10;96.00
20672;DHT22;10495;50.922;4.760;2023-11-21T03:04:22;10.10;95.90
20672;DHT22;10495;50.922;4.760;2023-11-21T03:06:48;10.00;96.10
20672;DHT22;10495;50.922;4.760;2023-11-21T03:09:13;10.10;95.90
20672;DHT22;10495;50.922;4.760;2023-11-21T03:11:39;10.10;95.90
20672;DHT22;10495;50.922;4.760;2023-11-21T03:14:05;10.10;96.00
20672;DHT22;10495;50.922;4.760;2023-11-21T03:16:32;10.10;95.90
20672;DHT22;10495;50.922;4.760;2023-11-21T03:18:58;10.10;95.90
20672;DHT22;10495;50.922;4.760;2023-11-21T03:21:24;10.10;95.90
20672;DHT22;10495;50.922;4.760;2023-11-21T03:23:50;10.00;95.70
20672;DHT22;10495;50.922;4.760;2023-11-21T03:26:15;10.00;95.80
20672;DHT22;10495;50.922;4.760;2023-11-21T03:28:42;10.00;95.90
20672;DHT22;10495;50.922;4.760;2023-11-21T03:31:07;10.00;95.90
20672;DHT22;10495;50.922;4.760;2023-11-21T03:33:35;10.00;95.80
20672;DHT22;10495;50.922;4.760;2023-11-21T03:36:01;10.10;95.90
20672;DHT22;10495;50.922;4.760;2023-11-21T03:38:29;10.10;96.20
20672;DHT22;10495;50.922;4.760;2023-11-21T03:40:54;10.20;96.00
20672;DHT22;10495;50.922;4.760;2023-11-21T03:43:20;10.10;96.00
20672;DHT22;10495;50.922;4.760;2023-11-21T03:45:45;10.20;96.00
20672;DHT22;10495;50.922;4.760;2023-11-21T03:48:12;10.10;96.00
20672;DHT22;10495;50.922;4.760;2023-11-21T03:50:38;10.20;96.00
20672;DHT22;10495;50.922;4.760;2023-11-21T03:53:04;10.20;96.00
20672;DHT22;10495;50.922;4.760;2023-11-21T03:55:29;10.20;96.00
20672;DHT22;10495;50.922;4.760;2023-11-21T03:57:57;10.20;96.00
20672;DHT22;10495;50.922;4.760;2023-11-21T04:00:23;10.20;96.00
20672;DHT22;10495;50.922;4.760;2023-11-21T04:02:49;10.20;96.00
20672;DHT22;10495;50.922;4.760;2023-11-21T04:05:16;10.20;96.00
20672;DHT22;10495;50.922;4.760;2023-11-21T04:07:41;10.20;96.00
20672;DHT22;10495;50.922;4.760;2023-11-21T04:10:08;10.20;96.00
20672;DHT22;10495;50.922;4.760;2023-11-21T04:12:38;10.30;96.00
20672;DHT22;10495;50.922;4.760;2023-11-21T04:15:04;10.40;96.00
20672;DHT22;10495;50.922;4.760;2023-11-21T04:17:30;10.20;96.00
20672;DHT22;10495;50.922;4.760;2023-11-21T04:19:56;10.20;96.00
20672;DHT22;10495;50.922;4.760;2023-11-21T04:22:21;10.30;96.00
20672;DHT22;10495;50.922;4.760;2023-11-21T04:24:47;10.20;95.90
20672;DHT22;10495;50.922;4.760;2023-11-21T04:27:13;10.30;96.00
20672;DHT22;10495;50.922;4.760;2023-11-21T04:29:39;10.20;95.90
20672;DHT22;10495;50.922;4.760;2023-11-21T04:32:06;10.30;96.10
20672;DHT22;10495;50.922;4.760;2023-11-21T04:34:33;10.30;96.10
20672;DHT22;10495;50.922;4.760;2023-11-21T04:37:00;10.30;96.10
20672;DHT22;10495;50.922;4.760;2023-11-21T04:39:26;10.50;96.10
20672;DHT22;10495;50.922;4.760;2023-11-21T04:41:52;10.40;96.00
20672;DHT22;10495;50.922;4.760;2023-11-21T04:44:17;10.40;96.10
20672;DHT22;10495;50.922;4.760;2023-11-21T04:46:43;10.40;96.10
20672;DHT22;10495;50.922;4.760;2023-11-21T04:49:09;10.40;96.10
20672;DHT22;10495;50.922;4.760;2023-11-21T04:51:34;10.40;96.00
20672;DHT22;10495;50.922;4.760;2023-11-21T04:54:00;10.40;96.00
20672;DHT22;10495;50.922;4.760;2023-11-21T04:56:25;10.50;96.10
20672;DHT22;10495;50.922;4.760;2023-11-21T04:58:51;10.40;96.10
20672;DHT22;10495;50.922;4.760;2023-11-21T05:01:17;10.40;96.10
20672;DHT22;10495;50.922;4.760;2023-11-21T05:03:43;10.50;96.10
20672;DHT22;10495;50.922;4.760;2023-11-21T05:06:11;10.40;96.30
20672;DHT22;10495;50.922;4.760;2023-11-21T05:08:37;10.50;96.20
20672;DHT22;10495;50.922;4.760;2023-11-21T05:11:03;10.50;96.10
20672;DHT22;10495;50.922;4.760;2023-11-21T05:13:29;10.50;96.10
20672;DHT22;10495;50.922;4.760;2023-11-21T05:15:55;10.50;96.10
20672;DHT22;10495;50.922;4.760;2023-11-21T05:18:22;10.60;96.20
20672;DHT22;10495;50.922;4.760;2023-11-21T05:20:48;10.60;96.20
20672;DHT22;10495;50.922;4.760;2023-11-21T05:23:14;10.60;96.40
20672;DHT22;10495;50.922;4.760;2023-11-21T05:25:39;10.60;96.20
20672;DHT22;10495;50.922;4.760;2023-11-21T05:28:06;10.70;96.20
20672;DHT22;10495;50.922;4.760;2023-11-21T05:30:32;10.60;96.20
20672;DHT22;10495;50.922;4.760;2023-11-21T05:32:58;10.70;96.20
20672;DHT22;10495;50.922;4.760;2023-11-21T05:35:23;10.70;96.20
20672;DHT22;10495;50.922;4.760;2023-11-21T05:37:49;10.60;96.10
20672;DHT22;10495;50.922;4.760;2023-11-21T05:40:14;10.70;96.20
20672;DHT22;10495;50.922;4.760;2023-11-21T05:42:40;10.70;96.20
20672;DHT22;10495;50.922;4.760;2023-11-21T05:45:07;10.80;96.30
20672;DHT22;10495;50.922;4.760;2023-11-21T05:47:41;10.70;96.30
20672;DHT22;10495;50.922;4.760;2023-11-21T05:50:08;10.70;96.30
20672;DHT22;10495;50.922;4.760;2023-11-21T05:52:41;10.70;96.30
20672;DHT22;10495;50.922;4.760;2023-11-21T05:55:08;10.70;96.20
20672;DHT22;10495;50.922;4.760;2023-11-21T05:57:38;10.80;96.30
20672;DHT22;10495;50.922;4.760;2023-11-21T06:00:14;10.80;96.30
20672;DHT22;10495;50.922;4.760;2023-11-21T06:02:48;10.80;96.30
20672;DHT22;10495;50.922;4.760;2023-11-21T06:05:16;10.80;96.30
20672;DHT22;10495;50.922;4.760;2023-11-21T06:07:43;10.80;96.30
20672;DHT22;10495;50.922;4.760;2023-11-21T06:10:10;10.80;96.50
20672;DHT22;10495;50.922;4.760;2023-11-21T06:12:37;10.80;96.30
20672;DHT22;10495;50.922;4.760;2023-11-21T06:15:06;10.80;96.30
20672;DHT22;10495;50.922;4.760;2023-11-21T06:17:34;10.80;96.30
20672;DHT22;10495;50.922;4.760;2023-11-21T06:20:04;10.80;96.30
20672;DHT22;10495;50.922;4.760;2023-11-21T06:22:38;10.80;96.30
20672;DHT22;10495;50.922;4.760;2023-11-21T06:25:05;10.90;96.30
20672;DHT22;10495;50.922;4.760;2023-11-21T06:27:36;10.90;96.30
20672;DHT22;10495;50.922;4.760;2023-11-21T06:30:03;10.90;96.30
20672;DHT22;10495;50.922;4.760;2023-11-21T06:32:29;10.90;96.30
20672;DHT22;10495;50.922;4.760;2023-11-21T06:34:56;10.90;96.40
20672;DHT22;10495;50.922;4.760;2023-11-21T06:37:21;10.80;96.40
20672;DHT22;10495;50.922;4.760;2023-11-21T06:39:49;10.90;96.40
20672;DHT22;10495;50.922;4.760;2023-11-21T06:42:14;10.90;96.40
20672;DHT22;10495;50.922;4.760;2023-11-21T06:44:41;10.90;96.40
20672;DHT22;10495;50.922;4.760;2023-11-21T06:47:07;11.00;96.40
20672;DHT22;10495;50.922;4.760;2023-11-21T06:49:32;11.10;96.20
20672;DHT22;10495;50.922;4.760;2023-11-21T06:51:58;11.00;96.10
20672;DHT22;10495;50.922;4.760;2023-11-21T06:54:24;11.00;96.20
20672;DHT22;10495;50.922;4.760;2023-11-21T06:56:50;11.00;96.30
20672;DHT22;10495;50.922;4.760;2023-11-21T06:59:16;11.00;96.30
20672;DHT22;10495;50.922;4.760;2023-11-21T07:01:41;11.00;96.40
20672;DHT22;10495;50.922;4.760;2023-11-21T07:04:07;11.00;96.40
20672;DHT22;10495;50.922;4.760;2023-11-21T07:06:35;11.20;96.50
20672;DHT22;10495;50.922;4.760;2023-11-21T07:09:00;11.10;96.40
20672;DHT22;10495;50.922;4.760;2023-11-21T07:11:27;11.10;96.40
20672;DHT22;10495;50.922;4.760;2023-11-21T07:13:52;11.10;96.50
20672;DHT22;10495;50.922;4.760;2023-11-21T07:16:18;11.10;96.60
20672;DHT22;10495;50.922;4.760;2023-11-21T07:18:44;11.10;96.50
20672;DHT22;10495;50.922;4.760;2023-11-21T07:21:10;11.20;96.50
20672;DHT22;10495;50.922;4.760;2023-11-21T07:23:37;11.20;96.50
20672;DHT22;10495;50.922;4.760;2023-11-21T07:26:03;11.20;96.50
20672;DHT22;10495;50.922;4.760;2023-11-21T07:28:34;11.30;96.30
20672;DHT22;10495;50.922;4.760;2023-11-21T07:31:00;11.30;96.30
20672;DHT22;10495;50.922;4.760;2023-11-21T07:33:25;11.30;96.30
20672;DHT22;10495;50.922;4.760;2023-11-21T07:35:51;11.30;96.30
20672;DHT22;10495;50.922;4.760;2023-11-21T07:38:17;11.30;96.30
20672;DHT22;10495;50.922;4.760;2023-11-21T07:40:43;11.30;96.40
20672;DHT22;10495;50.922;4.760;2023-11-21T07:43:09;11.30;96.40
20672;DHT22;10495;50.922;4.760;2023-11-21T07:45:36;11.40;96.50
20672;DHT22;10495;50.922;4.760;2023-11-21T07:48:01;11.40;96.40
20672;DHT22;10495;50.922;4.760;2023-11-21T07:50:30;11.40;96.40
20672;DHT22;10495;50.922;4.760;2023-11-21T07:52:56;11.40;96.40
20672;DHT22;10495;50.922;4.760;2023-11-21T07:55:23;11.40;96.50
20672;DHT22;10495;50.922;4.760;2023-11-21T07:57:50;11.40;96.60
20672;DHT22;10495;50.922;4.760;2023-11-21T08:00:16;11.40;96.60
20672;DHT22;10495;50.922;4.760;2023-11-21T08:02:41;11.50;96.60
20672;DHT22;10495;50.922;4.760;2023-11-21T08:05:12;11.50;96.50
20672;DHT22;10495;50.922;4.760;2023-11-21T08:07:38;11.50;96.40
20672;DHT22;10495;50.922;4.760;2023-11-21T08:10:04;11.60;96.50
20672;DHT22;10495;50.922;4.760;2023-11-21T08:12:30;11.70;96.40
20672;DHT22;10495;50.922;4.760;2023-11-21T08:14:56;11.60;96.50
20672;DHT22;10495;50.922;4.760;2023-11-21T08:17:21;11.60;96.50
20672;DHT22;10495;50.922;4.760;2023-11-21T08:19:48;11.60;96.50
20672;DHT22;10495;50.922;4.760;2023-11-21T08:22:15;11.60;96.60
20672;DHT22;10495;50.922;4.760;2023-11-21T08:24:43;11.60;96.60
20672;DHT22;10495;50.922;4.760;2023-11-21T08:27:09;11.60;96.70
20672;DHT22;10495;50.922;4.760;2023-11-21T08:29:35;11.70;96.70
20672;DHT22;10495;50.922;4.760;2023-11-21T08:32:02;11.70;96.50
20672;DHT22;10495;50.922;4.760;2023-11-21T08:34:27;11.70;96.60
20672;DHT22;10495;50.922;4.760;2023-11-21T08:36:54;11.70;96.60
20672;DHT22;10495;50.922;4.760;2023-11-21T08:39:21;11.80;96.70
20672;DHT22;10495;50.922;4.760;2023-11-21T08:41:49;11.80;96.70
20672;DHT22;10495;50.922;4.760;2023-11-21T08:44:16;11.80;96.70
20672;DHT22;10495;50.922;4.760;2023-11-21T08:46:43;11.80;96.70
20672;DHT22;10495;50.922;4.760;2023-11-21T08:49:11;11.90;96.70
20672;DHT22;10495;50.922;4.760;2023-11-21T08:51:37;11.90;96.70
20672;DHT22;10495;50.922;4.760;2023-11-21T08:54:03;11.90;96.70
20672;DHT22;10495;50.922;4.760;2023-11-21T08:56:32;11.90;96.50
20672;DHT22;10495;50.922;4.760;2023-11-21T08:58:59;11.90;96.60
20672;DHT22;10495;50.922;4.760;2023-11-21T09:01:27;11.90;96.60
20672;DHT22;10495;50.922;4.760;2023-11-21T09:03:53;11.90;96.60
20672;DHT22;10495;50.922;4.760;2023-11-21T09:06:19;12.00;96.70
20672;DHT22;10495;50.922;4.760;2023-11-21T09:08:44;12.00;96.70
20672;DHT22;10495;50.922;4.760;2023-11-21T09:11:10;12.00;96.70
20672;DHT22;10495;50.922;4.760;2023-11-21T09:13:36;12.10;96.60
20672;DHT22;10495;50.922;4.760;2023-11-21T09:16:02;12.10;96.60
20672;DHT22;10495;50.922;4.760;2023-11-21T09:18:27;12.10;96.70
20672;DHT22;10495;50.922;4.760;2023-11-21T09:20:53;12.20;96.70
20672;DHT22;10495;50.922;4.760;2023-11-21T09:23:18;12.20;96.60
20672;DHT22;10495;50.922;4.760;2023-11-21T09:25:44;12.20;96.70
20672;DHT22;10495;50.922;4.760;2023-11-21T09:28:12;12.30;96.60
20672;DHT22;10495;50.922;4.760;2023-11-21T09:30:38;12.40;96.30
20672;DHT22;10495;50.922;4.760;2023-11-21T09:33:04;12.30;96.50
20672;DHT22;10495;50.922;4.760;2023-11-21T09:35:38;12.40;96.70
20672;DHT22;10495;50.922;4.760;2023-11-21T09:38:04;12.30;96.70
20672;DHT22;10495;50.922;4.760;2023-11-21T09:40:37;12.30;96.60
20672;DHT22;10495;50.922;4.760;2023-11-21T09:43:06;12.40;96.50
20672;DHT22;10495;50.922;4.760;2023-11-21T09:45:36;12.40;96.50
20672;DHT22;10495;50.922;4.760;2023-11-21T09:48:03;12.40;96.30
20672;DHT22;10495;50.922;4.760;2023-11-21T09:50:31;12.40;96.40
20672;DHT22;10495;50.922;4.760;2023-11-21T09:53:17;12.40;96.50
20672;DHT22;10495;50.922;4.760;2023-11-21T09:55:45;12.30;96.80
20672;DHT22;10495;50.922;4.760;2023-11-21T09:58:12;12.40;96.80
20672;DHT22;10495;50.922;4.760;2023-11-21T10:00:43;12.40;96.80
20672;DHT22;10495;50.922;4.760;2023-11-21T10:03:10;12.40;96.80
20672;DHT22;10495;50.922;4.760;2023-11-21T10:05:37;12.40;96.80
20672;DHT22;10495;50.922;4.760;2023-11-21T10:08:09;12.60;97.10
20672;DHT22;10495;50.922;4.760;2023-11-21T10:10:42;12.60;96.90
20672;DHT22;10495;50.922;4.760;2023-11-21T10:13:11;12.70;96.20
20672;DHT22;10495;50.922;4.760;2023-11-21T10:15:38;12.80;96.20
20672;DHT22;10495;50.922;4.760;2023-11-21T10:18:05;12.90;96.00
20672;DHT22;10495;50.922;4.760;2023-11-21T10:20:33;12.80;95.90
20672;DHT22;10495;50.922;4.760;2023-11-21T10:23:00;12.70;96.10
20672;DHT22;10495;50.922;4.760;2023-11-21T10:25:27;12.70;96.20
20672;DHT22;10495;50.922;4.760;2023-11-21T10:27:58;12.80;95.90
20672;DHT22;10495;50.922;4.760;2023-11-21T10:30:31;12.80;95.80
20672;DHT22;10495;50.922;4.760;2023-11-21T10:33:01;12.80;95.80
20672;DHT22;10495;50.922;4.760;2023-11-21T10:35:39;12.70;96.00
20672;DHT22;10495;50.922;4.760;2023-11-21T10:38:05;12.70;96.00
20672;DHT22;10495;50.922;4.760;2023-11-21T10:40:31;12.60;95.90
20672;DHT22;10495;50.922;4.760;2023-11-21T10:43:06;12.60;96.00
20672;DHT22;10495;50.922;4.760;2023-11-21T10:45:34;12.70;96.00
20672;DHT22;10495;50.922;4.760;2023-11-21T10:48:00;12.70;95.90
20672;DHT22;10495;50.922;4.760;2023-11-21T10:50:26;12.70;95.90
20672;DHT22;10495;50.922;4.760;2023-11-21T10:52:52;12.70;96.10
20672;DHT22;10495;50.922;4.760;2023-11-21T10:55:20;12.70;96.20
20672;DHT22;10495;50.922;4.760;2023-11-21T10:57:49;12.80;96.10
20672;DHT22;10495;50.922;4.760;2023-11-21T11:00:16;12.70;96.00
20672;DHT22;10495;50.922;4.760;2023-11-21T11:02:45;12.80;95.80
20672;DHT22;10495;50.922;4.760;2023-11-21T11:05:14;12.70;95.70
20672;DHT22;10495;50.922;4.760;2023-11-21T11:07:43;12.50;96.20
20672;DHT22;10495;50.922;4.760;2023-11-21T11:10:10;12.50;96.30
20672;DHT22;10495;50.922;4.760;2023-11-21T11:12:40;12.50;96.40
20672;DHT22;10495;50.922;4.760;2023-11-21T11:15:07;12.60;96.00
20672;DHT22;10495;50.922;4.760;2023-11-21T11:17:36;12.60;96.00
20672;DHT22;10495;50.922;4.760;2023-11-21T11:20:04;12.50;95.60
20672;DHT22;10495;50.922;4.760;2023-11-21T11:22:50;12.60;95.80
20672;DHT22;10495;50.922;4.760;2023-11-21T11:28:21;12.70;95.50
20672;DHT22;10495;50.922;4.760;2023-11-21T11:31:10;12.60;95.30
20672;DHT22;10495;50.922;4.760;2023-11-21T11:33:53;12.50;95.70
20672;DHT22;10495;50.922;4.760;2023-11-21T11:36:41;12.30;95.90
20672;DHT22;10495;50.922;4.760;2023-11-21T11:39:34;12.30;96.20
20672;DHT22;10495;50.922;4.760;2023-11-21T11:42:02;12.40;95.90
20672;DHT22;10495;50.922;4.760;2023-11-21T11:47:31;12.50;95.60
20672;DHT22;10495;50.922;4.760;2023-11-21T11:50:10;12.30;96.00
20672;DHT22;10495;50.922;4.760;2023-11-21T11:52:47;12.30;96.40
20672;DHT22;10495;50.922;4.760;2023-11-21T11:55:13;12.10;96.40
20672;DHT22;10495;50.922;4.760;2023-11-21T11:57:40;12.10;96.40
20672;DHT22;10495;50.922;4.760;2023-11-21T12:02:55;12.30;96.50
20672;DHT22;10495;50.922;4.760;2023-11-21T12:05:22;12.40;96.60
20672;DHT22;10495;50.922;4.760;2023-11-21T12:07:56;12.40;96.50
20672;DHT22;10495;50.922;4.760;2023-11-21T12:10:23;12.40;96.80
20672;DHT22;10495;50.922;4.760;2023-11-21T12:12:51;12.40;96.30
20672;DHT22;10495;50.922;4.760;2023-11-21T12:15:21;12.40;96.60
20672;DHT22;10495;50.922;4.760;2023-11-21T12:17:48;12.60;96.70
20672;DHT22;10495;50.922;4.760;2023-11-21T12:20:16;12.80;96.70
20672;DHT22;10495;50.922;4.760;2023-11-21T12:22:44;12.80;96.60
20672;DHT22;10495;50.922;4.760;2023-11-21T12:25:22;12.90;96.40
20672;DHT22;10495;50.922;4.760;2023-11-21T12:27:50;12.90;96.60
20672;DHT22;10495;50.922;4.760;2023-11-21T12:30:21;13.00;96.40
20672;DHT22;10495;50.922;4.760;2023-11-21T12:32:52;13.00;96.40
20672;DHT22;10495;50.922;4.760;2023-11-21T12:35:19;13.00;96.20
20672;DHT22;10495;50.922;4.760;2023-11-21T12:37:47;13.00;96.30
20672;DHT22;10495;50.922;4.760;2023-11-21T12:40:14;13.10;96.40
20672;DHT22;10495;50.922;4.760;2023-11-21T12:42:41;13.10;96.20
20672;DHT22;10495;50.922;4.760;2023-11-21T12:47:49;13.00;95.60
20672;DHT22;10495;50.922;4.760;2023-11-21T12:50:18;12.80;95.60
20672;DHT22;10495;50.922;4.760;2023-11-21T12:52:47;12.70;95.60
20672;DHT22;10495;50.922;4.760;2023-11-21T12:55:20;12.70;95.80
20672;DHT22;10495;50.922;4.760;2023-11-21T12:57:51;12.80;95.70
20672;DHT22;10495;50.922;4.760;2023-11-21T13:00:20;12.80;95.80
20672;DHT22;10495;50.922;4.760;2023-11-21T13:02:56;13.00;95.50
20672;DHT22;10495;50.922;4.760;2023-11-21T13:05:36;13.00;95.40
20672;DHT22;10495;50.922;4.760;2023-11-21T13:08:07;12.90;95.70
20672;DHT22;10495;50.922;4.760;2023-11-21T13:10:35;12.80;95.70
20672;DHT22;10495;50.922;4.760;2023-11-21T13:13:03;12.70;95.60
20672;DHT22;10495;50.922;4.760;2023-11-21T13:15:31;12.60;95.90
20672;DHT22;10495;50.922;4.760;2023-11-21T13:18:00;12.50;95.80
20672;DHT22;10495;50.922;4.760;2023-11-21T13:20:26;12.50;96.10
20672;DHT22;10495;50.922;4.760;2023-11-21T13:22:56;12.60;96.30
20672;DHT22;10495;50.922;4.760;2023-11-21T13:25:28;12.70;95.90
20672;DHT22;10495;50.922;4.760;2023-11-21T13:27:57;12.80;96.00
20672;DHT22;10495;50.922;4.760;2023-11-21T13:30:24;12.90;95.60
20672;DHT22;10495;50.922;4.760;2023-11-21T13:33:02;12.90;95.60
20672;DHT22;10495;50.922;4.760;2023-11-21T13:35:33;12.90;96.10
20672;DHT22;10495;50.922;4.760;2023-11-21T13:38:05;12.80;95.80
20672;DHT22;10495;50.922;4.760;2023-11-21T13:40:32;12.80;95.90
20672;DHT22;10495;50.922;4.760;2023-11-21T13:43:00;12.80;95.50
20672;DHT22;10495;50.922;4.760;2023-11-21T13:45:29;12.70;95.80
20672;DHT22;10495;50.922;4.760;2023-11-21T13:47:56;12.70;95.80
20672;DHT22;10495;50.922;4.760;2023-11-21T13:50:25;12.70;95.40
20672;DHT22;10495;50.922;4.760;2023-11-21T13:53:14;12.50;95.60
20672;DHT22;10495;50.922;4.760;2023-11-21T13:55:48;12.50;95.80
20672;DHT22;10495;50.922;4.760;2023-11-21T13:58:15;12.50;95.90
20672;DHT22;10495;50.922;4.760;2023-11-21T14:00:48;12.60;96.00
20672;DHT22;10495;50.922;4.760;2023-11-21T14:03:21;12.70;95.90
20672;DHT22;10495;50.922;4.760;2023-11-21T14:05:50;12.70;95.80
20672;DHT22;10495;50.922;4.760;2023-11-21T14:08:21;12.60;95.80
20672;DHT22;10495;50.922;4.760;2023-11-21T14:10:49;12.70;96.00
20672;DHT22;10495;50.922;4.760;2023-11-21T14:13:31;12.80;95.90
20672;DHT22;10495;50.922;4.760;2023-11-21T14:15:58;12.90;95.90
20672;DHT22;10495;50.922;4.760;2023-11-21T14:18:25;13.00;95.80
20672;DHT22;10495;50.922;4.760;2023-11-21T14:21:04;12.90;95.60
20672;DHT22;10495;50.922;4.760;2023-11-21T14:23:35;12.70;95.60
20672;DHT22;10495;50.922;4.760;2023-11-21T14:26:03;12.80;95.80
20672;DHT22;10495;50.922;4.760;2023-11-21T14:28:31;12.90;95.90
20672;DHT22;10495;50.922;4.760;2023-11-21T14:30:57;13.10;95.60
20672;DHT22;10495;50.922;4.760;2023-11-21T14:33:22;13.00;95.50
20672;DHT22;10495;50.922;4.760;2023-11-21T14:35:48;13.00;95.50
20672;DHT22;10495;50.922;4.760;2023-11-21T14:38:15;13.00;95.30
20672;DHT22;10495;50.922;4.760;2023-11-21T14:40:41;13.00;95.60
20672;DHT22;10495;50.922;4.760;2023-11-21T14:43:07;13.00;95.70
20672;DHT22;10495;50.922;4.760;2023-11-21T14:45:33;13.10;95.40
20672;DHT22;10495;50.922;4.760;2023-11-21T14:48:00;13.10;95.20
20672;DHT22;10495;50.922;4.760;2023-11-21T14:50:34;13.00;94.60
20672;DHT22;10495;50.922;4.760;2023-11-21T14:53:18;13.10;94.80
20672;DHT22;10495;50.922;4.760;2023-11-21T14:56:04;13.00;94.90
20672;DHT22;10495;50.922;4.760;2023-11-21T14:58:30;12.90;94.80
20672;DHT22;10495;50.922;4.760;2023-11-21T15:00:57;12.90;95.00
20672;DHT22;10495;50.922;4.760;2023-11-21T15:03:27;12.90;95.10
20672;DHT22;10495;50.922;4.760;2023-11-21T15:05:59;12.90;95.00
20672;DHT22;10495;50.922;4.760;2023-11-21T15:08:42;12.70;95.20
20672;DHT22;10495;50.922;4.760;2023-11-21T15:11:08;12.70;95.50
20672;DHT22;10495;50.922;4.760;2023-11-21T15:13:40;12.60;95.40
20672;DHT22;10495;50.922;4.760;2023-11-21T15:16:07;12.50;95.50
20672;DHT22;10495;50.922;4.760;2023-11-21T15:18:34;12.50;95.50
20672;DHT22;10495;50.922;4.760;2023-11-21T15:21:01;12.50;95.60
20672;DHT22;10495;50.922;4.760;2023-11-21T15:23:29;12.50;95.60
20672;DHT22;10495;50.922;4.760;2023-11-21T15:25:56;12.50;95.70
20672;DHT22;10495;50.922;4.760;2023-11-21T15:28:23;12.50;95.60
20672;DHT22;10495;50.922;4.760;2023-11-21T15:30:50;12.50;95.60
20672;DHT22;10495;50.922;4.760;2023-11-21T15:33:16;12.60;95.60
20672;DHT22;10495;50.922;4.760;2023-11-21T15:35:43;12.50;95.30
20672;DHT22;10495;50.922;4.760;2023-11-21T15:38:08;12.40;95.60
20672;DHT22;10495;50.922;4.760;2023-11-21T15:40:34;12.40;95.40
20672;DHT22;10495;50.922;4.760;2023-11-21T15:43:00;12.40;95.60
20672;DHT22;10495;50.922;4.760;2023-11-21T15:45:28;12.40;95.60
20672;DHT22;10495;50.922;4.760;2023-11-21T15:47:54;12.50;95.60